sensor_id;sensor_type;location;lat;lon;timestamp;P1;durP1;ratioP1;P2;durP2;ratioP2
53040;SDS011;39326;42.650;23.248;2023-04-25T00:02:21;2.60;;;2.40;;
53040;SDS011;39326;42.650;23.248;2023-04-25T00:04:47;2.10;;;1.83;;
53040;SDS011;39326;42.650;23.248;2023-04-25T00:07:14;1.40;;;1.30;;
53040;SDS011;39326;42.650;23.248;2023-04-25T00:09:40;1.90;;;1.20;;
53040;SDS011;39326;42.650;23.248;2023-04-25T00:12:05;1.13;;;0.80;;
53040;SDS011;39326;42.650;23.248;2023-04-25T00:14:31;1.00;;;0.90;;
53040;SDS011;39326;42.650;23.248;2023-04-25T00:16:58;1.43;;;0.83;;
53040;SDS011;39326;42.650;23.248;2023-04-25T00:19:24;0.73;;;0.60;;
53040;SDS011;39326;42.650;23.248;2023-04-25T00:21:49;0.57;;;0.57;;
53040;SDS011;39326;42.650;23.248;2023-04-25T00:24:15;0.60;;;0.60;;
53040;SDS011;39326;42.650;23.248;2023-04-25T00:26:40;0.67;;;0.50;;
53040;SDS011;39326;42.650;23.248;2023-04-25T00:29:06;0.47;;;0.47;;
53040;SDS011;39326;42.650;23.248;2023-04-25T00:31:31;0.50;;;0.50;;
53040;SDS011;39326;42.650;23.248;2023-04-25T00:33:56;0.70;;;0.53;;
53040;SDS011;39326;42.650;23.248;2023-04-25T00:36:22;0.90;;;0.60;;
53040;SDS011;39326;42.650;23.248;2023-04-25T00:38:47;0.47;;;0.47;;
53040;SDS011;39326;42.650;23.248;2023-04-25T00:41:13;0.50;;;0.50;;
53040;SDS011;39326;42.650;23.248;2023-04-25T00:43:38;0.60;;;0.60;;
53040;SDS011;39326;42.650;23.248;2023-04-25T00:46:05;0.63;;;0.63;;
53040;SDS011;39326;42.650;23.248;2023-04-25T00:48:30;0.70;;;0.57;;
53040;SDS011;39326;42.650;23.248;2023-04-25T00:50:57;0.67;;;0.67;;
53040;SDS011;39326;42.650;23.248;2023-04-25T00:53:24;1.27;;;0.70;;
53040;SDS011;39326;42.650;23.248;2023-04-25T00:55:51;1.00;;;0.60;;
53040;SDS011;39326;42.650;23.248;2023-04-25T00:58:18;0.50;;;0.50;;
53040;SDS011;39326;42.650;23.248;2023-04-25T01:00:45;0.60;;;0.60;;
53040;SDS011;39326;42.650;23.248;2023-04-25T01:03:12;2.00;;;1.80;;
53040;SDS011;39326;42.650;23.248;2023-04-25T01:05:39;1.60;;;1.50;;
53040;SDS011;39326;42.650;23.248;2023-04-25T01:08:06;1.40;;;1.30;;
53040;SDS011;39326;42.650;23.248;2023-04-25T01:10:32;2.00;;;1.60;;
53040;SDS011;39326;42.650;23.248;2023-04-25T01:12:57;1.80;;;1.70;;
53040;SDS011;39326;42.650;23.248;2023-04-25T01:15:22;2.63;;;2.27;;
53040;SDS011;39326;42.650;23.248;2023-04-25T01:17:48;2.37;;;1.90;;
53040;SDS011;39326;42.650;23.248;2023-04-25T01:20:14;2.50;;;2.30;;
53040;SDS011;39326;42.650;23.248;2023-04-25T01:22:41;3.50;;;2.57;;
53040;SDS011;39326;42.650;23.248;2023-04-25T01:25:07;3.40;;;3.10;;
53040;SDS011;39326;42.650;23.248;2023-04-25T01:27:33;5.10;;;3.37;;
53040;SDS011;39326;42.650;23.248;2023-04-25T01:30:00;3.70;;;3.23;;
53040;SDS011;39326;42.650;23.248;2023-04-25T01:32:26;4.53;;;3.43;;
53040;SDS011;39326;42.650;23.248;2023-04-25T01:34:52;4.43;;;3.23;;
53040;SDS011;39326;42.650;23.248;2023-04-25T01:37:17;5.13;;;4.67;;
53040;SDS011;39326;42.650;23.248;2023-04-25T01:39:43;3.70;;;3.33;;
53040;SDS011;39326;42.650;23.248;2023-04-25T01:42:09;4.70;;;4.40;;
53040;SDS011;39326;42.650;23.248;2023-04-25T01:44:34;4.70;;;4.07;;
53040;SDS011;39326;42.650;23.248;2023-04-25T01:47:00;4.63;;;4.33;;
53040;SDS011;39326;42.650;23.248;2023-04-25T01:49:25;6.53;;;5.90;;
53040;SDS011;39326;42.650;23.248;2023-04-25T01:51:51;6.73;;;6.13;;
53040;SDS011;39326;42.650;23.248;2023-04-25T01:54:16;5.67;;;5.27;;
53040;SDS011;39326;42.650;23.248;2023-04-25T01:56:43;6.83;;;6.23;;
53040;SDS011;39326;42.650;23.248;2023-04-25T01:59:09;5.53;;;5.13;;
53040;SDS011;39326;42.650;23.248;2023-04-25T02:01:34;6.47;;;5.87;;
53040;SDS011;39326;42.650;23.248;2023-04-25T02:04:00;6.43;;;5.50;;
53040;SDS011;39326;42.650;23.248;2023-04-25T02:06:25;6.67;;;5.80;;
53040;SDS011;39326;42.650;23.248;2023-04-25T02:08:51;7.17;;;6.57;;
53040;SDS011;39326;42.650;23.248;2023-04-25T02:11:16;7.33;;;6.03;;
53040;SDS011;39326;42.650;23.248;2023-04-25T02:13:42;6.53;;;5.93;;
53040;SDS011;39326;42.650;23.248;2023-04-25T02:16:07;7.47;;;6.77;;
53040;SDS011;39326;42.650;23.248;2023-04-25T02:18:32;8.23;;;7.53;;
53040;SDS011;39326;42.650;23.248;2023-04-25T02:20:59;8.63;;;7.93;;
53040;SDS011;39326;42.650;23.248;2023-04-25T02:23:24;9.63;;;8.87;;
53040;SDS011;39326;42.650;23.248;2023-04-25T02:25:50;9.27;;;8.50;;
53040;SDS011;39326;42.650;23.248;2023-04-25T02:28:16;9.57;;;8.67;;
53040;SDS011;39326;42.650;23.248;2023-04-25T02:30:41;8.97;;;8.27;;
53040;SDS011;39326;42.650;23.248;2023-04-25T02:33:07;8.80;;;8.10;;
53040;SDS011;39326;42.650;23.248;2023-04-25T02:35:32;9.80;;;9.00;;
53040;SDS011;39326;42.650;23.248;2023-04-25T02:37:57;9.33;;;8.53;;
53040;SDS011;39326;42.650;23.248;2023-04-25T02:40:23;10.23;;;9.43;;
53040;SDS011;39326;42.650;23.248;2023-04-25T02:42:48;8.57;;;7.97;;
53040;SDS011;39326;42.650;23.248;2023-04-25T02:45:15;9.07;;;8.37;;
53040;SDS011;39326;42.650;23.248;2023-04-25T02:47:40;10.33;;;9.53;;
53040;SDS011;39326;42.650;23.248;2023-04-25T02:50:06;9.43;;;8.70;;
53040;SDS011;39326;42.650;23.248;2023-04-25T02:52:32;8.83;;;8.20;;
53040;SDS011;39326;42.650;23.248;2023-04-25T02:54:57;9.63;;;8.87;;
53040;SDS011;39326;42.650;23.248;2023-04-25T02:57:23;9.10;;;8.30;;
53040;SDS011;39326;42.650;23.248;2023-04-25T02:59:48;6.63;;;6.13;;
53040;SDS011;39326;42.650;23.248;2023-04-25T03:02:13;5.37;;;4.97;;
53040;SDS011;39326;42.650;23.248;2023-04-25T03:04:39;5.37;;;4.97;;
53040;SDS011;39326;42.650;23.248;2023-04-25T03:07:05;5.20;;;4.60;;
53040;SDS011;39326;42.650;23.248;2023-04-25T03:09:30;4.77;;;4.47;;
53040;SDS011;39326;42.650;23.248;2023-04-25T03:11:56;5.00;;;4.70;;
53040;SDS011;39326;42.650;23.248;2023-04-25T03:14:21;4.70;;;4.40;;
53040;SDS011;39326;42.650;23.248;2023-04-25T03:16:46;4.87;;;4.47;;
53040;SDS011;39326;42.650;23.248;2023-04-25T03:19:12;4.70;;;4.40;;
53040;SDS011;39326;42.650;23.248;2023-04-25T03:21:37;4.10;;;3.80;;
53040;SDS011;39326;42.650;23.248;2023-04-25T03:24:03;4.40;;;4.10;;
53040;SDS011;39326;42.650;23.248;2023-04-25T03:26:30;4.20;;;3.90;;
53040;SDS011;39326;42.650;23.248;2023-04-25T03:28:55;4.00;;;3.60;;
53040;SDS011;39326;42.650;23.248;2023-04-25T03:31:21;4.40;;;4.00;;
53040;SDS011;39326;42.650;23.248;2023-04-25T03:33:47;3.80;;;3.50;;
53040;SDS011;39326;42.650;23.248;2023-04-25T03:36:12;4.40;;;4.00;;
53040;SDS011;39326;42.650;23.248;2023-04-25T03:38:38;4.37;;;3.97;;
53040;SDS011;39326;42.650;23.248;2023-04-25T03:41:03;3.97;;;3.57;;
53040;SDS011;39326;42.650;23.248;2023-04-25T03:43:29;4.00;;;3.70;;
53040;SDS011;39326;42.650;23.248;2023-04-25T03:45:54;3.67;;;3.37;;
53040;SDS011;39326;42.650;23.248;2023-04-25T03:48:20;4.43;;;3.70;;
53040;SDS011;39326;42.650;23.248;2023-04-25T03:50:47;3.57;;;3.27;;
53040;SDS011;39326;42.650;23.248;2023-04-25T03:53:13;3.83;;;3.53;;
53040;SDS011;39326;42.650;23.248;2023-04-25T03:55:38;3.60;;;3.33;;
53040;SDS011;39326;42.650;23.248;2023-04-25T03:58:03;3.47;;;3.17;;
53040;SDS011;39326;42.650;23.248;2023-04-25T04:00:29;3.30;;;3.00;;
53040;SDS011;39326;42.650;23.248;2023-04-25T04:02:55;3.00;;;2.80;;
53040;SDS011;39326;42.650;23.248;2023-04-25T04:05:20;3.07;;;2.80;;
53040;SDS011;39326;42.650;23.248;2023-04-25T04:07:47;2.70;;;2.50;;
53040;SDS011;39326;42.650;23.248;2023-04-25T04:10:12;3.00;;;2.80;;
53040;SDS011;39326;42.650;23.248;2023-04-25T04:12:38;2.83;;;2.63;;
53040;SDS011;39326;42.650;23.248;2023-04-25T04:15:04;3.43;;;3.13;;
53040;SDS011;39326;42.650;23.248;2023-04-25T04:17:31;2.57;;;2.43;;
53040;SDS011;39326;42.650;23.248;2023-04-25T04:19:56;2.47;;;2.23;;
53040;SDS011;39326;42.650;23.248;2023-04-25T04:22:22;3.20;;;2.33;;
53040;SDS011;39326;42.650;23.248;2023-04-25T04:24:48;2.07;;;1.97;;
53040;SDS011;39326;42.650;23.248;2023-04-25T04:27:15;3.30;;;2.50;;
53040;SDS011;39326;42.650;23.248;2023-04-25T04:29:44;2.87;;;2.30;;
53040;SDS011;39326;42.650;23.248;2023-04-25T04:32:11;3.80;;;3.50;;
53040;SDS011;39326;42.650;23.248;2023-04-25T04:34:37;3.50;;;2.93;;
53040;SDS011;39326;42.650;23.248;2023-04-25T04:37:04;3.13;;;2.83;;
53040;SDS011;39326;42.650;23.248;2023-04-25T04:39:31;3.87;;;2.20;;
53040;SDS011;39326;42.650;23.248;2023-04-25T04:41:57;2.27;;;2.17;;
53040;SDS011;39326;42.650;23.248;2023-04-25T04:44:24;2.57;;;2.00;;
53040;SDS011;39326;42.650;23.248;2023-04-25T04:46:50;1.77;;;1.67;;
53040;SDS011;39326;42.650;23.248;2023-04-25T04:49:15;2.27;;;2.03;;
53040;SDS011;39326;42.650;23.248;2023-04-25T04:51:41;2.20;;;2.10;;
53040;SDS011;39326;42.650;23.248;2023-04-25T04:54:09;2.03;;;1.83;;
53040;SDS011;39326;42.650;23.248;2023-04-25T04:56:35;3.20;;;1.90;;
53040;SDS011;39326;42.650;23.248;2023-04-25T04:59:00;2.60;;;2.40;;
53040;SDS011;39326;42.650;23.248;2023-04-25T05:01:27;1.70;;;1.60;;
53040;SDS011;39326;42.650;23.248;2023-04-25T05:03:54;2.33;;;2.00;;
53040;SDS011;39326;42.650;23.248;2023-04-25T05:06:25;1.70;;;1.60;;
53040;SDS011;39326;42.650;23.248;2023-04-25T05:08:51;1.80;;;1.70;;
53040;SDS011;39326;42.650;23.248;2023-04-25T05:11:17;1.77;;;1.67;;
53040;SDS011;39326;42.650;23.248;2023-04-25T05:13:43;1.70;;;1.60;;
53040;SDS011;39326;42.650;23.248;2023-04-25T05:16:09;1.73;;;1.63;;
53040;SDS011;39326;42.650;23.248;2023-04-25T05:18:34;1.70;;;1.60;;
53040;SDS011;39326;42.650;23.248;2023-04-25T05:21:01;1.93;;;1.70;;
53040;SDS011;39326;42.650;23.248;2023-04-25T05:23:26;1.63;;;1.53;;
53040;SDS011;39326;42.650;23.248;2023-04-25T05:25:53;2.50;;;1.53;;
53040;SDS011;39326;42.650;23.248;2023-04-25T05:28:18;1.97;;;1.60;;
53040;SDS011;39326;42.650;23.248;2023-04-25T05:30:44;1.70;;;1.60;;
53040;SDS011;39326;42.650;23.248;2023-04-25T05:33:09;5.80;;;5.37;;
53040;SDS011;39326;42.650;23.248;2023-04-25T05:35:35;5.63;;;5.10;;
53040;SDS011;39326;42.650;23.248;2023-04-25T05:38:00;9.33;;;8.40;;
53040;SDS011;39326;42.650;23.248;2023-04-25T05:40:25;7.47;;;6.87;;
53040;SDS011;39326;42.650;23.248;2023-04-25T05:42:51;8.23;;;7.63;;
53040;SDS011;39326;42.650;23.248;2023-04-25T05:45:16;7.43;;;6.83;;
53040;SDS011;39326;42.650;23.248;2023-04-25T05:47:42;9.00;;;8.17;;
53040;SDS011;39326;42.650;23.248;2023-04-25T05:50:08;6.67;;;6.13;;
53040;SDS011;39326;42.650;23.248;2023-04-25T05:52:33;4.93;;;4.43;;
53040;SDS011;39326;42.650;23.248;2023-04-25T05:54:59;4.30;;;2.30;;
53040;SDS011;39326;42.650;23.248;2023-04-25T05:57:25;2.13;;;2.00;;
53040;SDS011;39326;42.650;23.248;2023-04-25T05:59:52;1.83;;;1.70;;
53040;SDS011;39326;42.650;23.248;2023-04-25T06:02:18;2.10;;;2.00;;
53040;SDS011;39326;42.650;23.248;2023-04-25T06:04:45;2.33;;;2.13;;
53040;SDS011;39326;42.650;23.248;2023-04-25T06:07:11;1.90;;;1.80;;
53040;SDS011;39326;42.650;23.248;2023-04-25T06:09:37;1.83;;;1.60;;
53040;SDS011;39326;42.650;23.248;2023-04-25T06:12:04;1.80;;;1.70;;
53040;SDS011;39326;42.650;23.248;2023-04-25T06:14:30;6.43;;;5.90;;
53040;SDS011;39326;42.650;23.248;2023-04-25T06:16:55;9.20;;;8.50;;
53040;SDS011;39326;42.650;23.248;2023-04-25T06:19:21;6.10;;;5.60;;
53040;SDS011;39326;42.650;23.248;2023-04-25T06:21:46;7.40;;;6.80;;
53040;SDS011;39326;42.650;23.248;2023-04-25T06:24:12;8.50;;;7.80;;
53040;SDS011;39326;42.650;23.248;2023-04-25T06:26:37;10.77;;;9.87;;
53040;SDS011;39326;42.650;23.248;2023-04-25T06:29:02;11.83;;;10.93;;
53040;SDS011;39326;42.650;23.248;2023-04-25T06:31:28;12.23;;;11.23;;
53040;SDS011;39326;42.650;23.248;2023-04-25T06:33:59;13.50;;;12.37;;
53040;SDS011;39326;42.650;23.248;2023-04-25T06:36:25;11.53;;;10.57;;
53040;SDS011;39326;42.650;23.248;2023-04-25T06:38:52;11.33;;;10.43;;
53040;SDS011;39326;42.650;23.248;2023-04-25T06:41:18;13.50;;;12.30;;
53040;SDS011;39326;42.650;23.248;2023-04-25T06:43:43;12.57;;;11.37;;
53040;SDS011;39326;42.650;23.248;2023-04-25T06:46:09;10.30;;;9.50;;
53040;SDS011;39326;42.650;23.248;2023-04-25T06:48:35;10.07;;;9.27;;
53040;SDS011;39326;42.650;23.248;2023-04-25T06:51:00;11.33;;;10.27;;
53040;SDS011;39326;42.650;23.248;2023-04-25T06:53:26;9.93;;;9.03;;
53040;SDS011;39326;42.650;23.248;2023-04-25T06:55:51;10.80;;;9.90;;
53040;SDS011;39326;42.650;23.248;2023-04-25T06:58:17;10.30;;;9.43;;
53040;SDS011;39326;42.650;23.248;2023-04-25T07:00:42;9.53;;;8.73;;
53040;SDS011;39326;42.650;23.248;2023-04-25T07:03:08;10.57;;;9.67;;
53040;SDS011;39326;42.650;23.248;2023-04-25T07:05:33;9.60;;;8.90;;
53040;SDS011;39326;42.650;23.248;2023-04-25T07:07:59;5.20;;;4.73;;
53040;SDS011;39326;42.650;23.248;2023-04-25T07:10:25;3.03;;;2.83;;
53040;SDS011;39326;42.650;23.248;2023-04-25T07:12:50;2.97;;;2.77;;
53040;SDS011;39326;42.650;23.248;2023-04-25T07:15:16;2.17;;;2.07;;
53040;SDS011;39326;42.650;23.248;2023-04-25T07:17:41;2.87;;;2.07;;
53040;SDS011;39326;42.650;23.248;2023-04-25T07:20:07;3.43;;;2.37;;
53040;SDS011;39326;42.650;23.248;2023-04-25T07:22:34;2.20;;;2.10;;
53040;SDS011;39326;42.650;23.248;2023-04-25T07:24:59;2.63;;;2.43;;
53040;SDS011;39326;42.650;23.248;2023-04-25T07:27:25;3.20;;;2.28;;
53040;SDS011;39326;42.650;23.248;2023-04-25T07:29:50;3.30;;;2.60;;
53040;SDS011;39326;42.650;23.248;2023-04-25T07:32:16;3.37;;;2.33;;
53040;SDS011;39326;42.650;23.248;2023-04-25T07:34:41;2.23;;;2.03;;
53040;SDS011;39326;42.650;23.248;2023-04-25T07:37:07;3.00;;;2.77;;
53040;SDS011;39326;42.650;23.248;2023-04-25T07:39:32;2.50;;;2.22;;
53040;SDS011;39326;42.650;23.248;2023-04-25T07:41:58;2.33;;;2.00;;
53040;SDS011;39326;42.650;23.248;2023-04-25T07:44:23;1.77;;;1.63;;
53040;SDS011;39326;42.650;23.248;2023-04-25T07:46:50;1.98;;;1.88;;
53040;SDS011;39326;42.650;23.248;2023-04-25T07:49:16;3.70;;;1.90;;
53040;SDS011;39326;42.650;23.248;2023-04-25T07:51:41;1.67;;;1.57;;
53040;SDS011;39326;42.650;23.248;2023-04-25T07:54:08;2.05;;;1.95;;
53040;SDS011;39326;42.650;23.248;2023-04-25T07:56:38;1.53;;;1.43;;
53040;SDS011;39326;42.650;23.248;2023-04-25T07:59:04;2.67;;;1.67;;
53040;SDS011;39326;42.650;23.248;2023-04-25T08:01:30;1.50;;;1.40;;
53040;SDS011;39326;42.650;23.248;2023-04-25T08:03:55;1.60;;;1.50;;
53040;SDS011;39326;42.650;23.248;2023-04-25T08:06:21;1.67;;;1.25;;
53040;SDS011;39326;42.650;23.248;2023-04-25T08:08:46;1.73;;;1.30;;
53040;SDS011;39326;42.650;23.248;2023-04-25T08:11:12;2.05;;;1.15;;
53040;SDS011;39326;42.650;23.248;2023-04-25T08:13:37;2.40;;;1.70;;
53040;SDS011;39326;42.650;23.248;2023-04-25T08:16:02;2.70;;;2.50;;
53040;SDS011;39326;42.650;23.248;2023-04-25T08:18:28;1.80;;;1.70;;
53040;SDS011;39326;42.650;23.248;2023-04-25T08:20:53;1.50;;;1.40;;
53040;SDS011;39326;42.650;23.248;2023-04-25T08:23:19;1.92;;;1.38;;
53040;SDS011;39326;42.650;23.248;2023-04-25T08:25:44;1.40;;;1.30;;
53040;SDS011;39326;42.650;23.248;2023-04-25T08:28:10;1.83;;;1.50;;
53040;SDS011;39326;42.650;23.248;2023-04-25T08:30:36;1.60;;;1.50;;
53040;SDS011;39326;42.650;23.248;2023-04-25T08:33:01;3.07;;;1.93;;
53040;SDS011;39326;42.650;23.248;2023-04-25T08:35:27;2.88;;;1.83;;
53040;SDS011;39326;42.650;23.248;2023-04-25T08:37:53;9.10;;;7.00;;
53040;SDS011;39326;42.650;23.248;2023-04-25T08:40:18;4.32;;;3.95;;
53040;SDS011;39326;42.650;23.248;2023-04-25T08:42:50;2.27;;;2.07;;
53040;SDS011;39326;42.650;23.248;2023-04-25T08:45:18;2.27;;;1.63;;
53040;SDS011;39326;42.650;23.248;2023-04-25T08:47:45;1.87;;;1.77;;
53040;SDS011;39326;42.650;23.248;2023-04-25T08:50:10;1.67;;;1.58;;
53040;SDS011;39326;42.650;23.248;2023-04-25T08:52:37;1.50;;;1.40;;
53040;SDS011;39326;42.650;23.248;2023-04-25T08:55:08;2.27;;;1.53;;
53040;SDS011;39326;42.650;23.248;2023-04-25T08:57:34;4.17;;;1.50;;
53040;SDS011;39326;42.650;23.248;2023-04-25T09:00:01;1.90;;;1.33;;
53040;SDS011;39326;42.650;23.248;2023-04-25T09:02:27;1.67;;;1.50;;
53040;SDS011;39326;42.650;23.248;2023-04-25T09:04:54;1.75;;;1.45;;
53040;SDS011;39326;42.650;23.248;2023-04-25T09:07:21;2.40;;;1.58;;
53040;SDS011;39326;42.650;23.248;2023-04-25T09:09:46;1.92;;;1.40;;
53040;SDS011;39326;42.650;23.248;2023-04-25T09:12:12;2.20;;;1.17;;
53040;SDS011;39326;42.650;23.248;2023-04-25T09:14:38;1.30;;;1.20;;
53040;SDS011;39326;42.650;23.248;2023-04-25T09:17:04;2.72;;;1.48;;
53040;SDS011;39326;42.650;23.248;2023-04-25T09:19:33;1.92;;;1.20;;
53040;SDS011;39326;42.650;23.248;2023-04-25T09:22:04;4.07;;;1.95;;
53040;SDS011;39326;42.650;23.248;2023-04-25T09:27:04;1.33;;;1.23;;
53040;SDS011;39326;42.650;23.248;2023-04-25T09:29:34;2.88;;;1.58;;
53040;SDS011;39326;42.650;23.248;2023-04-25T09:34:40;1.50;;;1.30;;
53040;SDS011;39326;42.650;23.248;2023-04-25T09:37:20;2.27;;;1.10;;
53040;SDS011;39326;42.650;23.248;2023-04-25T09:39:48;1.30;;;1.20;;
53040;SDS011;39326;42.650;23.248;2023-04-25T09:42:15;1.50;;;1.40;;
53040;SDS011;39326;42.650;23.248;2023-04-25T09:44:42;0.90;;;0.90;;
53040;SDS011;39326;42.650;23.248;2023-04-25T09:47:09;2.63;;;1.33;;
53040;SDS011;39326;42.650;23.248;2023-04-25T09:49:38;1.23;;;0.98;;
53040;SDS011;39326;42.650;23.248;2023-04-25T09:52:06;1.67;;;1.35;;
53040;SDS011;39326;42.650;23.248;2023-04-25T09:54:31;1.90;;;1.60;;
53040;SDS011;39326;42.650;23.248;2023-04-25T09:56:56;1.23;;;1.13;;
53040;SDS011;39326;42.650;23.248;2023-04-25T09:59:27;0.85;;;0.85;;
53040;SDS011;39326;42.650;23.248;2023-04-25T10:01:56;0.77;;;0.75;;
53040;SDS011;39326;42.650;23.248;2023-04-25T10:04:23;1.30;;;0.80;;
53040;SDS011;39326;42.650;23.248;2023-04-25T10:06:51;1.70;;;1.00;;
53040;SDS011;39326;42.650;23.248;2023-04-25T10:09:20;2.00;;;1.00;;
53040;SDS011;39326;42.650;23.248;2023-04-25T10:11:46;2.83;;;1.15;;
53040;SDS011;39326;42.650;23.248;2023-04-25T10:14:13;2.17;;;0.95;;
53040;SDS011;39326;42.650;23.248;2023-04-25T10:16:39;1.10;;;0.83;;
53040;SDS011;39326;42.650;23.248;2023-04-25T10:19:06;2.08;;;0.93;;
53040;SDS011;39326;42.650;23.248;2023-04-25T10:21:32;1.00;;;0.90;;
53040;SDS011;39326;42.650;23.248;2023-04-25T10:23:59;1.50;;;1.13;;
53040;SDS011;39326;42.650;23.248;2023-04-25T10:26:25;0.93;;;0.60;;
53040;SDS011;39326;42.650;23.248;2023-04-25T10:29:01;1.38;;;0.75;;
53040;SDS011;39326;42.650;23.248;2023-04-25T10:31:29;3.10;;;0.80;;
53040;SDS011;39326;42.650;23.248;2023-04-25T10:33:55;1.05;;;0.60;;
53040;SDS011;39326;42.650;23.248;2023-04-25T10:36:22;1.67;;;0.70;;
53040;SDS011;39326;42.650;23.248;2023-04-25T10:38:49;0.80;;;0.77;;
53040;SDS011;39326;42.650;23.248;2023-04-25T10:41:17;1.63;;;0.70;;
53040;SDS011;39326;42.650;23.248;2023-04-25T10:43:44;1.65;;;0.70;;
53040;SDS011;39326;42.650;23.248;2023-04-25T10:48:52;1.02;;;0.70;;
53040;SDS011;39326;42.650;23.248;2023-04-25T10:51:20;0.95;;;0.80;;
53040;SDS011;39326;42.650;23.248;2023-04-25T10:53:56;1.05;;;0.70;;
53040;SDS011;39326;42.650;23.248;2023-04-25T10:56:27;0.95;;;0.80;;
53040;SDS011;39326;42.650;23.248;2023-04-25T10:59:05;1.98;;;0.60;;
53040;SDS011;39326;42.650;23.248;2023-04-25T11:04:04;1.23;;;1.00;;
53040;SDS011;39326;42.650;23.248;2023-04-25T11:09:28;2.10;;;1.20;;
53040;SDS011;39326;42.650;23.248;2023-04-25T11:11:55;2.65;;;1.08;;
53040;SDS011;39326;42.650;23.248;2023-04-25T11:14:25;1.65;;;0.75;;
53040;SDS011;39326;42.650;23.248;2023-04-25T11:16:54;1.50;;;0.90;;
53040;SDS011;39326;42.650;23.248;2023-04-25T11:19:20;1.38;;;0.98;;
53040;SDS011;39326;42.650;23.248;2023-04-25T11:21:47;1.77;;;1.20;;
53040;SDS011;39326;42.650;23.248;2023-04-25T11:24:12;2.67;;;1.05;;
53040;SDS011;39326;42.650;23.248;2023-04-25T11:26:38;1.98;;;1.02;;
53040;SDS011;39326;42.650;23.248;2023-04-25T11:29:06;1.90;;;1.17;;
53040;SDS011;39326;42.650;23.248;2023-04-25T11:31:31;2.42;;;1.10;;
53040;SDS011;39326;42.650;23.248;2023-04-25T11:33:57;2.42;;;1.15;;
53040;SDS011;39326;42.650;23.248;2023-04-25T11:36:26;3.47;;;1.23;;
53040;SDS011;39326;42.650;23.248;2023-04-25T11:38:52;2.97;;;1.02;;
53040;SDS011;39326;42.650;23.248;2023-04-25T11:41:19;1.90;;;1.00;;
53040;SDS011;39326;42.650;23.248;2023-04-25T11:43:45;2.75;;;1.02;;
53040;SDS011;39326;42.650;23.248;2023-04-25T11:46:10;1.08;;;0.60;;
53040;SDS011;39326;42.650;23.248;2023-04-25T11:48:39;3.33;;;0.95;;
53040;SDS011;39326;42.650;23.248;2023-04-25T11:51:06;2.75;;;1.10;;
53040;SDS011;39326;42.650;23.248;2023-04-25T11:53:31;1.33;;;0.98;;
53040;SDS011;39326;42.650;23.248;2023-04-25T11:55:57;1.43;;;0.90;;
53040;SDS011;39326;42.650;23.248;2023-04-25T11:58:22;1.23;;;0.85;;
53040;SDS011;39326;42.650;23.248;2023-04-25T12:00:48;0.63;;;0.60;;
53040;SDS011;39326;42.650;23.248;2023-04-25T12:03:13;0.97;;;0.87;;
53040;SDS011;39326;42.650;23.248;2023-04-25T12:05:39;0.93;;;0.70;;
53040;SDS011;39326;42.650;23.248;2023-04-25T12:08:14;0.43;;;0.43;;
53040;SDS011;39326;42.650;23.248;2023-04-25T12:10:41;0.57;;;0.40;;
53040;SDS011;39326;42.650;23.248;2023-04-25T12:13:18;0.40;;;0.40;;
53040;SDS011;39326;42.650;23.248;2023-04-25T12:15:45;0.47;;;0.47;;
53040;SDS011;39326;42.650;23.248;2023-04-25T12:18:10;0.52;;;0.50;;
53040;SDS011;39326;42.650;23.248;2023-04-25T12:20:36;0.85;;;0.60;;
53040;SDS011;39326;42.650;23.248;2023-04-25T12:23:01;0.55;;;0.55;;
53040;SDS011;39326;42.650;23.248;2023-04-25T12:25:34;16.10;;;2.50;;
53040;SDS011;39326;42.650;23.248;2023-04-25T12:30:52;0.70;;;0.70;;
53040;SDS011;39326;42.650;23.248;2023-04-25T12:33:24;1.02;;;0.60;;
53040;SDS011;39326;42.650;23.248;2023-04-25T12:35:51;0.75;;;0.70;;
53040;SDS011;39326;42.650;23.248;2023-04-25T12:38:27;0.60;;;0.60;;
53040;SDS011;39326;42.650;23.248;2023-04-25T12:40:55;0.97;;;0.80;;
53040;SDS011;39326;42.650;23.248;2023-04-25T12:43:20;1.05;;;0.80;;
53040;SDS011;39326;42.650;23.248;2023-04-25T12:45:50;1.63;;;0.90;;
53040;SDS011;39326;42.650;23.248;2023-04-25T12:48:17;1.70;;;1.10;;
53040;SDS011;39326;42.650;23.248;2023-04-25T12:50:43;1.20;;;0.93;;
53040;SDS011;39326;42.650;23.248;2023-04-25T12:53:09;1.50;;;1.00;;
53040;SDS011;39326;42.650;23.248;2023-04-25T12:55:36;1.70;;;1.20;;
53040;SDS011;39326;42.650;23.248;2023-04-25T12:58:03;1.92;;;1.40;;
53040;SDS011;39326;42.650;23.248;2023-04-25T13:00:28;2.10;;;1.20;;
53040;SDS011;39326;42.650;23.248;2023-04-25T13:02:54;1.40;;;1.30;;
53040;SDS011;39326;42.650;23.248;2023-04-25T13:05:20;1.20;;;1.10;;
53040;SDS011;39326;42.650;23.248;2023-04-25T13:07:46;2.30;;;1.60;;
53040;SDS011;39326;42.650;23.248;2023-04-25T13:10:11;4.10;;;1.60;;
53040;SDS011;39326;42.650;23.248;2023-04-25T13:12:37;1.83;;;1.47;;
53040;SDS011;39326;42.650;23.248;2023-04-25T13:15:02;2.00;;;1.30;;
53040;SDS011;39326;42.650;23.248;2023-04-25T13:17:28;3.87;;;1.70;;
53040;SDS011;39326;42.650;23.248;2023-04-25T13:19:53;2.90;;;1.30;;
53040;SDS011;39326;42.650;23.248;2023-04-25T13:22:19;2.87;;;0.97;;
53040;SDS011;39326;42.650;23.248;2023-04-25T13:24:45;1.67;;;1.20;;
53040;SDS011;39326;42.650;23.248;2023-04-25T13:27:11;1.80;;;1.37;;
53040;SDS011;39326;42.650;23.248;2023-04-25T13:29:36;1.95;;;1.48;;
53040;SDS011;39326;42.650;23.248;2023-04-25T13:32:03;1.83;;;1.43;;
53040;SDS011;39326;42.650;23.248;2023-04-25T13:34:28;2.60;;;1.60;;
53040;SDS011;39326;42.650;23.248;2023-04-25T13:36:55;1.73;;;1.50;;
53040;SDS011;39326;42.650;23.248;2023-04-25T13:39:21;2.60;;;1.90;;
53040;SDS011;39326;42.650;23.248;2023-04-25T13:41:46;2.23;;;1.80;;
53040;SDS011;39326;42.650;23.248;2023-04-25T13:44:12;2.23;;;1.87;;
53040;SDS011;39326;42.650;23.248;2023-04-25T13:46:37;2.60;;;2.40;;
53040;SDS011;39326;42.650;23.248;2023-04-25T13:49:03;3.47;;;3.17;;
53040;SDS011;39326;42.650;23.248;2023-04-25T13:51:29;3.07;;;2.77;;
53040;SDS011;39326;42.650;23.248;2023-04-25T13:53:55;1.40;;;1.20;;
53040;SDS011;39326;42.650;23.248;2023-04-25T13:56:21;2.20;;;1.13;;
53040;SDS011;39326;42.650;23.248;2023-04-25T13:58:48;1.20;;;0.97;;
53040;SDS011;39326;42.650;23.248;2023-04-25T14:01:13;3.33;;;1.10;;
53040;SDS011;39326;42.650;23.248;2023-04-25T14:03:39;1.13;;;0.90;;
53040;SDS011;39326;42.650;23.248;2023-04-25T14:06:05;2.40;;;0.97;;
53040;SDS011;39326;42.650;23.248;2023-04-25T14:08:30;0.80;;;0.80;;
53040;SDS011;39326;42.650;23.248;2023-04-25T14:10:56;0.70;;;0.70;;
53040;SDS011;39326;42.650;23.248;2023-04-25T14:13:21;1.13;;;0.73;;
53040;SDS011;39326;42.650;23.248;2023-04-25T14:15:48;0.70;;;0.70;;
53040;SDS011;39326;42.650;23.248;2023-04-25T14:18:15;0.80;;;0.80;;
53040;SDS011;39326;42.650;23.248;2023-04-25T14:20:40;0.52;;;0.50;;
53040;SDS011;39326;42.650;23.248;2023-04-25T14:23:06;1.10;;;0.77;;
53040;SDS011;39326;42.650;23.248;2023-04-25T14:25:31;0.70;;;0.70;;
53040;SDS011;39326;42.650;23.248;2023-04-25T14:27:57;1.30;;;0.80;;
53040;SDS011;39326;42.650;23.248;2023-04-25T14:30:22;0.80;;;0.60;;
53040;SDS011;39326;42.650;23.248;2023-04-25T14:32:51;1.63;;;0.90;;
53040;SDS011;39326;42.650;23.248;2023-04-25T14:35:16;2.37;;;1.00;;
53040;SDS011;39326;42.650;23.248;2023-04-25T14:37:42;1.20;;;1.10;;
53040;SDS011;39326;42.650;23.248;2023-04-25T14:40:07;1.27;;;1.13;;
53040;SDS011;39326;42.650;23.248;2023-04-25T14:42:37;2.00;;;1.40;;
53040;SDS011;39326;42.650;23.248;2023-04-25T14:45:06;3.00;;;1.77;;